createdAt,value
2023-04-09T00:01:25.365Z,101549.03
2023-04-09T00:03:52.394Z,101542.50
2023-04-09T00:06:25.056Z,101548.09
2023-04-09T00:08:55.712Z,101548.41
2023-04-09T00:11:23.640Z,101552.84
2023-04-09T00:14:08.723Z,101550.28
2023-04-09T00:17:05.379Z,101551.13
2023-04-09T00:19:38.213Z,101558.06
2023-04-09T00:22:18.095Z,101555.34
2023-04-09T00:24:47.718Z,101555.22
2023-04-09T00:27:19.783Z,101561.44
2023-04-09T00:29:56.001Z,101562.53
2023-04-09T00:32:41.589Z,101566.09
2023-04-09T00:35:22.421Z,101569.56
2023-04-09T00:37:49.609Z,101573.94
2023-04-09T00:40:21.707Z,101576.59
2023-04-09T00:42:55.810Z,101571.34
2023-04-09T00:45:22.700Z,101579.03
2023-04-09T00:48:08.838Z,101578.25
2023-04-09T00:50:48.737Z,101581.63
2023-04-09T00:53:19.021Z,101574.59
2023-04-09T00:55:48.903Z,101583.34
2023-04-09T00:58:16.108Z,101584.16
2023-04-09T01:00:46.604Z,101580.88
2023-04-09T01:03:16.631Z,101585.31
2023-04-09T01:06:02.518Z,101576.59
2023-04-09T01:08:58.674Z,101581.84
2023-04-09T01:11:49.937Z,101575.69
2023-04-09T01:14:31.987Z,101578.44
2023-04-09T01:17:17.188Z,101582.84
2023-04-09T01:19:58.510Z,101584.59
2023-04-09T01:22:35.955Z,101580.19
2023-04-09T01:25:25.709Z,101584.50
2023-04-09T01:28:11.275Z,101583.66
2023-04-09T01:30:42.264Z,101574.91
2023-04-09T01:33:16.990Z,101588.06
2023-04-09T01:35:46.258Z,101588.94
2023-04-09T01:38:21.696Z,101580.22
2023-04-09T01:41:06.594Z,101579.34
2023-04-09T01:43:46.227Z,101581.09
2023-04-09T01:46:13.974Z,101574.06
2023-04-09T01:48:41.285Z,101573.13
2023-04-09T01:51:34.828Z,101578.38
2023-04-09T01:54:13.327Z,101582.78
2023-04-09T01:56:48.733Z,101571.44
2023-04-09T01:59:16.213Z,101574.06
2023-04-09T02:01:52.439Z,101571.47
2023-04-09T02:04:31.346Z,101570.63
2023-04-09T02:07:12.487Z,101581.09
2023-04-09T02:09:47.718Z,101578.50
2023-04-09T02:12:41.050Z,101575.88
2023-04-09T02:15:08.715Z,101576.75
2023-04-09T02:17:38.502Z,101574.09
2023-04-09T02:20:05.907Z,101574.94
2023-04-09T02:22:59.662Z,101581.06
2023-04-09T02:28:07.932Z,101572.94
2023-04-09T02:30:34.873Z,101571.91
2023-04-09T02:33:20.181Z,101570.25
2023-04-09T02:35:54.324Z,101571.31
2023-04-09T02:38:24.172Z,101574.91
2023-04-09T02:40:51.045Z,101583.66
2023-04-09T02:43:24.261Z,101590.59
2023-04-09T02:45:51.072Z,101569.63
2023-04-09T02:48:33.697Z,101578.13
2023-04-09T02:51:51.031Z,101573.19
2023-04-09T02:55:00.815Z,101575.13
2023-04-09T02:57:28.493Z,101571.91
2023-04-09T02:59:55.984Z,101574.59
2023-04-09T03:02:27.659Z,101570.31
2023-04-09T03:07:44.747Z,101572.88
2023-04-09T03:10:24.959Z,101564.34
2023-04-09T03:13:04.184Z,101577.13
2023-04-09T03:15:51.939Z,101572.72
2023-04-09T03:18:28.857Z,101574.88
2023-04-09T03:20:55.895Z,101585.94
2023-04-09T03:23:22.827Z,101579.69
2023-04-09T03:26:01.134Z,101590.94
2023-04-09T03:28:31.509Z,101592.09
2023-04-09T03:31:01.423Z,101582.28
2023-04-09T03:33:28.341Z,101588.41
2023-04-09T03:35:55.327Z,101587.22
2023-04-09T03:38:22.905Z,101583.03
2023-04-09T03:40:55.278Z,101591.16
2023-04-09T03:43:58.969Z,101596.41
2023-04-09T03:46:27.417Z,101599.06
2023-04-09T03:48:54.571Z,101588.78
2023-04-09T03:51:35.062Z,101597.59
2023-04-09T03:54:16.863Z,101591.78
2023-04-09T03:56:57.284Z,101584.22
2023-04-09T03:59:24.726Z,101593.66
2023-04-09T04:02:00.278Z,101592.22
2023-04-09T04:04:30.250Z,101602.72
2023-04-09T04:07:11.798Z,101601.75
2023-04-09T04:09:38.898Z,101596.59
2023-04-09T04:12:10.424Z,101599.66
2023-04-09T04:14:42.618Z,101597.19
2023-04-09T04:17:12.258Z,101598.16
2023-04-09T04:19:41.911Z,101601.81
2023-04-09T04:22:08.883Z,101601.09
2023-04-09T04:24:54.367Z,101598.50
2023-04-09T04:27:32.579Z,101602.84
2023-04-09T04:30:11.780Z,101602.84
2023-04-09T04:32:49.656Z,101607.19
2023-04-09T04:35:34.437Z,101608.09
2023-04-09T04:38:07.372Z,101600.25
2023-04-09T04:40:35.823Z,101606.34
2023-04-09T04:43:19.295Z,101608.97
2023-04-09T04:45:59.935Z,101603.09
2023-04-09T04:48:34.371Z,101600.72
2023-04-09T04:51:05.922Z,101602.75
2023-04-09T04:53:38.890Z,101604.59
2023-04-09T04:56:21.316Z,101603.75
2023-04-09T04:58:48.351Z,101604.69
2023-04-09T05:01:21.998Z,101609.09
2023-04-09T05:03:50.847Z,101628.34
2023-04-09T05:06:23.562Z,101619.59
2023-04-09T05:08:50.861Z,101624.84
2023-04-09T05:11:21.505Z,101632.72
2023-04-09T05:13:51.732Z,101627.38
2023-04-09T05:16:20.334Z,101630.91
2023-04-09T05:18:47.942Z,101632.69
2023-04-09T05:21:20.713Z,101633.56
2023-04-09T05:23:48.066Z,101631.75
2023-04-09T05:26:17.078Z,101638.75
2023-04-09T05:28:44.080Z,101645.75
2023-04-09T05:31:16.002Z,101644.84
2023-04-09T05:33:48.482Z,101648.38
2023-04-09T05:36:22.240Z,101644.00
2023-04-09T05:38:49.719Z,101645.75
2023-04-09T05:41:23.828Z,101645.69
2023-04-09T05:44:00.825Z,101648.25
2023-04-09T05:46:45.697Z,101656.81
2023-04-09T05:49:23.216Z,101656.06
2023-04-09T05:51:56.402Z,101650.81
2023-04-09T05:54:34.148Z,101652.59
2023-04-09T05:57:17.279Z,101651.72
2023-04-09T05:59:44.365Z,101657.81
2023-04-09T06:02:20.430Z,101655.19
2023-04-09T06:04:54.408Z,101665.72
2023-04-09T06:07:22.905Z,101668.38
2023-04-09T06:09:50.005Z,101673.56
2023-04-09T06:12:28.357Z,101670.03
2023-04-09T06:14:55.204Z,101677.03
2023-04-09T06:17:22.140Z,101671.75
2023-04-09T06:19:52.286Z,101677.81
2023-04-09T06:22:22.162Z,101673.47
2023-04-09T06:24:54.565Z,101670.81
2023-04-09T06:27:24.307Z,101667.16
2023-04-09T06:29:54.308Z,101670.69
2023-04-09T06:32:24.469Z,101673.31
2023-04-09T06:34:54.440Z,101679.44
2023-04-09T06:37:24.460Z,101685.34
2023-04-09T06:40:01.116Z,101687.97
2023-04-09T06:42:35.405Z,101693.16
2023-04-09T06:45:12.213Z,101685.38
2023-04-09T06:47:39.274Z,101701.03
2023-04-09T06:50:10.916Z,101690.41
2023-04-09T06:52:43.819Z,101691.97
2023-04-09T06:55:11.060Z,101688.47
2023-04-09T06:57:56.055Z,101695.31
2023-04-09T07:00:36.500Z,101697.91
2023-04-09T07:03:09.563Z,101701.41
2023-04-09T07:05:36.895Z,101709.34
2023-04-09T07:08:04.480Z,101701.66
2023-04-09T07:10:34.301Z,101702.03
2023-04-09T07:13:01.341Z,101707.13
2023-04-09T07:15:30.725Z,101711.91
2023-04-09T07:17:59.678Z,101715.03
2023-04-09T07:20:29.638Z,101713.75
2023-04-09T07:22:56.612Z,101717.06
2023-04-09T07:25:23.640Z,101717.84
2023-04-09T07:30:54.793Z,101730.81
2023-04-09T07:33:24.839Z,101737.00
2023-04-09T07:35:53.256Z,101723.66
2023-04-09T07:38:26.156Z,101730.63
2023-04-09T07:40:55.088Z,101733.41
2023-04-09T07:43:22.772Z,101737.38
2023-04-09T07:45:52.803Z,101737.94
2023-04-09T07:48:22.630Z,101744.34
2023-04-09T07:50:53.043Z,101748.00
2023-04-09T07:53:20.164Z,101737.59
2023-04-09T07:55:47.166Z,101744.59
2023-04-09T07:58:14.143Z,101748.00
2023-04-09T08:00:41.246Z,101752.84
2023-04-09T08:03:18.187Z,101744.19
2023-04-09T08:05:52.259Z,101749.41
2023-04-09T08:08:21.181Z,101748.78
2023-04-09T08:11:04.279Z,101744.53
2023-04-09T08:13:40.978Z,101745.53
2023-04-09T08:16:21.764Z,101748.28
2023-04-09T08:18:57.540Z,101748.31
2023-04-09T08:21:36.570Z,101744.28
2023-04-09T08:24:05.368Z,101747.69
2023-04-09T08:26:32.305Z,101752.50
2023-04-09T08:28:59.620Z,101762.69
2023-04-09T08:31:43.028Z,101752.31
2023-04-09T08:34:15.044Z,101750.88
2023-04-09T08:37:07.707Z,101755.81
2023-04-09T08:39:37.695Z,101754.84
2023-04-09T08:42:19.999Z,101758.00
2023-04-09T08:44:56.622Z,101758.31
2023-04-09T08:47:24.369Z,101763.50
2023-04-09T08:49:54.426Z,101762.47
2023-04-09T08:52:54.542Z,101765.88
2023-04-09T08:55:34.040Z,101758.59
2023-04-09T08:58:34.469Z,101767.09
2023-04-09T09:01:02.105Z,101762.00
2023-04-09T09:03:29.049Z,101765.72
2023-04-09T09:05:56.019Z,101768.44
2023-04-09T09:08:46.656Z,101770.88
2023-04-09T09:11:35.754Z,101764.78
2023-04-09T09:14:34.835Z,101768.38
2023-04-09T09:17:12.783Z,101775.44
2023-04-09T09:19:54.045Z,101772.03
2023-04-09T09:22:21.213Z,101765.97
2023-04-09T09:25:03.506Z,101769.25
2023-04-09T09:27:43.918Z,101768.38
2023-04-09T09:30:22.190Z,101766.63
2023-04-09T09:32:52.977Z,101761.72
2023-04-09T09:35:39.897Z,101756.94
2023-04-09T09:38:19.627Z,101752.50
2023-04-09T09:40:50.530Z,101745.28
2023-04-09T09:43:17.690Z,101746.81
2023-04-09T09:45:50.114Z,101749.28
2023-04-09T09:48:25.292Z,101748.06
2023-04-09T09:51:19.848Z,101747.00
2023-04-09T09:53:57.808Z,101738.22
2023-04-09T09:56:32.878Z,101745.69
2023-04-09T09:59:04.244Z,101739.41
2023-04-09T10:01:40.190Z,101738.44
2023-04-09T10:04:16.273Z,101750.44
2023-04-09T10:06:57.081Z,101751.34
2023-04-09T10:09:31.678Z,101746.72
2023-04-09T10:12:04.498Z,101750.34
2023-04-09T10:14:41.874Z,101750.44
2023-04-09T10:17:25.058Z,101740.19
2023-04-09T10:20:16.286Z,101743.06
2023-04-09T10:22:45.398Z,101748.72
2023-04-09T10:25:21.142Z,101743.94
2023-04-09T10:28:00.601Z,101747.72
2023-04-09T10:30:35.219Z,101747.22
2023-04-09T10:33:26.751Z,101755.66
2023-04-09T10:35:56.954Z,101753.84
2023-04-09T10:38:47.448Z,101746.28
2023-04-09T10:41:25.598Z,101746.78
2023-04-09T10:44:05.529Z,101745.13
2023-04-09T10:46:52.518Z,101741.19
2023-04-09T10:49:27.359Z,101730.38
2023-04-09T10:52:18.344Z,101735.41
2023-04-09T10:54:52.666Z,101742.03
2023-04-09T10:57:21.778Z,101735.94
2023-04-09T10:59:53.643Z,101735.94
2023-04-09T11:02:39.658Z,101723.41
2023-04-09T11:08:29.459Z,101728.06
2023-04-09T11:10:58.780Z,101733.22
2023-04-09T11:13:25.874Z,101723.56
2023-04-09T11:15:57.210Z,101719.00
2023-04-09T11:18:27.113Z,101723.28
2023-04-09T11:21:08.711Z,101714.41
2023-04-09T11:23:35.866Z,101719.28
2023-04-09T11:26:03.136Z,101706.97
2023-04-09T11:28:41.355Z,101709.91
2023-04-09T11:31:08.400Z,101713.59
2023-04-09T11:33:35.689Z,101716.06
2023-04-09T11:36:18.823Z,101707.69
2023-04-09T11:38:49.773Z,101711.09
2023-04-09T11:41:16.907Z,101708.34
2023-04-09T11:43:44.047Z,101709.41
2023-04-09T11:46:11.512Z,101707.38
2023-04-09T11:48:38.677Z,101700.47
2023-04-09T11:51:07.637Z,101696.00
2023-04-09T11:53:38.099Z,101706.25
2023-04-09T11:56:07.110Z,101703.06
2023-04-09T11:58:36.998Z,101703.59
2023-04-09T12:01:04.084Z,101704.56
2023-04-09T12:03:33.679Z,101704.78
2023-04-09T12:06:09.508Z,101698.22
2023-04-09T12:08:39.548Z,101697.13
2023-04-09T12:11:19.466Z,101697.06
2023-04-09T12:13:59.064Z,101692.84
2023-04-09T12:16:26.142Z,101692.03
2023-04-09T12:18:56.084Z,101685.50
2023-04-09T12:21:27.565Z,101693.69
2023-04-09T12:24:06.222Z,101688.66
2023-04-09T12:26:33.160Z,101686.16
2023-04-09T12:29:16.921Z,101679.31
2023-04-09T12:31:53.037Z,101677.19
2023-04-09T12:34:34.582Z,101682.59
2023-04-09T12:37:06.400Z,101675.28
2023-04-09T12:39:37.645Z,101686.97
2023-04-09T12:42:09.732Z,101689.34
2023-04-09T12:44:49.629Z,101686.13
2023-04-09T12:47:19.522Z,101688.16
2023-04-09T12:49:47.119Z,101684.63
2023-04-09T12:52:14.208Z,101689.25
2023-04-09T12:54:41.217Z,101679.78
2023-04-09T12:57:08.267Z,101675.47
2023-04-09T12:59:37.707Z,101666.59
2023-04-09T13:02:04.790Z,101667.88
2023-04-09T13:04:32.217Z,101673.38
2023-04-09T13:07:10.931Z,101664.13
2023-04-09T13:09:42.196Z,101659.16
2023-04-09T13:12:09.172Z,101662.00
2023-04-09T13:14:36.815Z,101657.00
2023-04-09T13:17:05.146Z,101650.72
2023-04-09T13:19:43.752Z,101645.44
2023-04-09T13:22:33.699Z,101644.44
2023-04-09T13:25:00.977Z,101641.81
2023-04-09T13:27:27.863Z,101634.59
2023-04-09T13:29:54.785Z,101636.88
2023-04-09T13:32:23.558Z,101642.66
2023-04-09T13:35:18.589Z,101639.97
2023-04-09T13:37:45.739Z,101641.41
2023-04-09T13:40:13.341Z,101636.81
2023-04-09T13:42:43.786Z,101632.44
2023-04-09T13:45:10.944Z,101625.44
2023-04-09T13:47:41.467Z,101623.47
2023-04-09T13:50:13.331Z,101624.84
2023-04-09T13:52:40.315Z,101614.53
2023-04-09T13:55:08.038Z,101622.91
2023-04-09T13:57:35.043Z,101623.56
2023-04-09T14:00:04.785Z,101619.41
2023-04-09T14:02:32.627Z,101618.53
2023-04-09T14:05:04.172Z,101615.53
2023-04-09T14:07:31.251Z,101607.56
2023-04-09T14:10:09.070Z,101607.66
2023-04-09T14:12:36.287Z,101604.34
2023-04-09T14:15:11.877Z,101607.94
2023-04-09T14:17:49.835Z,101600.19
2023-04-09T14:20:16.886Z,101609.19
2023-04-09T14:22:49.360Z,101601.16
2023-04-09T14:25:17.136Z,101602.25
2023-04-09T14:27:43.972Z,101606.25
2023-04-09T14:30:13.273Z,101606.09
2023-04-09T14:32:42.563Z,101606.25
2023-04-09T14:35:09.904Z,101606.38
2023-04-09T14:37:41.862Z,101597.06
2023-04-09T14:40:12.139Z,101601.66
2023-04-09T14:42:40.050Z,101602.72
2023-04-09T14:45:14.344Z,101594.91
2023-04-09T14:47:42.397Z,101607.28
2023-04-09T14:50:10.589Z,101599.47
2023-04-09T14:52:37.516Z,101602.28
2023-04-09T14:55:04.865Z,101588.47
2023-04-09T14:57:31.885Z,101594.16
2023-04-09T15:00:05.204Z,101590.06
2023-04-09T15:02:39.705Z,101598.22
2023-04-09T15:05:10.412Z,101594.72
2023-04-09T15:07:37.347Z,101602.00
2023-04-09T15:10:04.339Z,101604.00
2023-04-09T15:12:38.973Z,101596.78
2023-04-09T15:15:07.633Z,101609.16
2023-04-09T15:17:34.689Z,101605.41
2023-04-09T15:20:01.690Z,101609.75
2023-04-09T15:22:28.656Z,101605.22
2023-04-09T15:24:57.870Z,101607.13
2023-04-09T15:27:26.535Z,101605.00
2023-04-09T15:29:58.435Z,101605.94
2023-04-09T15:32:34.060Z,101600.00
2023-04-09T15:35:35.149Z,101596.69
2023-04-09T15:38:50.998Z,101614.53
2023-04-09T15:41:18.362Z,101605.75
2023-04-09T15:43:58.998Z,101612.97
2023-04-09T15:46:34.651Z,101610.06
2023-04-09T15:49:12.058Z,101600.28
2023-04-09T15:51:53.924Z,101600.75
2023-04-09T15:54:20.952Z,101606.91
2023-04-09T15:56:47.976Z,101605.34
2023-04-09T15:59:14.848Z,101608.94
2023-04-09T16:01:44.904Z,101606.13
2023-04-09T16:04:11.839Z,101610.72
2023-04-09T16:06:39.661Z,101603.63
2023-04-09T16:09:06.632Z,101609.97
2023-04-09T16:11:39.633Z,101608.03
2023-04-09T16:14:09.618Z,101617.72
2023-04-09T16:16:37.153Z,101621.19
2023-04-09T16:19:04.141Z,101614.16
2023-04-09T16:21:31.583Z,101622.88
2023-04-09T16:23:58.470Z,101622.94
2023-04-09T16:26:25.327Z,101620.31
2023-04-09T16:28:53.642Z,101618.03
2023-04-09T16:31:20.740Z,101616.78
2023-04-09T16:33:49.032Z,101622.72
2023-04-09T16:36:16.043Z,101629.88
2023-04-09T16:38:42.944Z,101624.25
2023-04-09T16:41:15.387Z,101625.75
2023-04-09T16:43:45.370Z,101623.31
2023-04-09T16:46:12.446Z,101633.47
2023-04-09T16:48:49.854Z,101637.75
2023-04-09T16:51:17.325Z,101635.41
2023-04-09T16:53:44.247Z,101642.41
2023-04-09T16:56:11.130Z,101639.72
2023-04-09T16:58:39.312Z,101633.63
2023-04-09T17:04:26.758Z,101635.38
2023-04-09T17:09:55.099Z,101646.56
2023-04-09T17:12:25.848Z,101644.06
2023-04-09T17:15:08.171Z,101643.25
2023-04-09T17:17:42.988Z,101650.66
2023-04-09T17:20:10.767Z,101651.59
2023-04-09T17:22:40.434Z,101645.81
2023-04-09T17:25:10.989Z,101643.19
2023-04-09T17:27:53.091Z,101644.13
2023-04-09T17:30:23.067Z,101649.56
2023-04-09T17:32:53.368Z,101658.53
2023-04-09T17:35:20.816Z,101659.78
2023-04-09T17:37:51.198Z,101656.66
2023-04-09T17:40:47.448Z,101651.28
2023-04-09T17:43:14.758Z,101658.44
2023-04-09T17:45:57.597Z,101657.75
2023-04-09T17:48:27.923Z,101668.34
2023-04-09T17:50:55.970Z,101663.13
2023-04-09T17:53:26.153Z,101672.69
2023-04-09T17:56:03.385Z,101678.06
2023-04-09T17:58:30.493Z,101688.34
2023-04-09T18:01:01.967Z,101695.50
2023-04-09T18:03:31.679Z,101698.22
2023-04-09T18:06:01.919Z,101699.28
2023-04-09T18:08:32.298Z,101692.94
2023-04-09T18:11:13.972Z,101691.44
2023-04-09T18:13:43.436Z,101691.44
2023-04-09T18:16:12.748Z,101694.06
2023-04-09T18:18:45.305Z,101693.53
2023-04-09T18:21:15.632Z,101695.44
2023-04-09T18:23:43.378Z,101708.66
2023-04-09T18:26:14.795Z,101710.97
2023-04-09T18:28:42.327Z,101715.09
2023-04-09T18:31:21.314Z,101718.34
2023-04-09T18:33:49.980Z,101726.66
2023-04-09T18:36:39.468Z,101719.66
2023-04-09T18:39:15.269Z,101731.72
2023-04-09T18:41:50.515Z,101734.69
2023-04-09T18:44:26.300Z,101740.78
2023-04-09T18:46:59.495Z,101736.53
2023-04-09T18:49:31.023Z,101744.63
2023-04-09T18:51:58.252Z,101743.56
2023-04-09T18:54:26.171Z,101759.50
2023-04-09T18:56:53.170Z,101755.50
2023-04-09T18:59:20.147Z,101759.31
2023-04-09T19:01:56.085Z,101765.34
2023-04-09T19:04:33.785Z,101763.53
2023-04-09T19:07:04.766Z,101772.25
2023-04-09T19:09:35.194Z,101772.28
2023-04-09T19:12:02.290Z,101768.31
2023-04-09T19:14:32.371Z,101772.75
2023-04-09T19:17:03.397Z,101762.75
2023-04-09T19:19:30.379Z,101772.47
2023-04-09T19:22:03.838Z,101782.84
2023-04-09T19:24:34.846Z,101785.38
2023-04-09T19:27:12.909Z,101785.22
2023-04-09T19:29:42.057Z,101786.44
2023-04-09T19:32:23.128Z,101786.81
2023-04-09T19:35:01.957Z,101784.25
2023-04-09T19:37:31.251Z,101794.31
2023-04-09T19:40:23.539Z,101793.50
2023-04-09T19:42:56.628Z,101806.00
2023-04-09T19:45:27.360Z,101800.84
2023-04-09T19:50:43.091Z,101808.13
2023-04-09T19:53:11.023Z,101807.13
2023-04-09T19:55:47.002Z,101813.59
2023-04-09T19:58:13.968Z,101821.81
2023-04-09T20:00:47.086Z,101815.09
2023-04-09T20:03:23.451Z,101819.25
2023-04-09T20:05:50.820Z,101822.41
2023-04-09T20:08:20.774Z,101817.22
2023-04-09T20:10:49.307Z,101818.72
2023-04-09T20:13:16.204Z,101817.72
2023-04-09T20:15:48.281Z,101821.41
2023-04-09T20:18:19.386Z,101819.81
2023-04-09T20:20:46.455Z,101826.66
2023-04-09T20:26:13.404Z,101831.81
2023-04-09T20:29:01.054Z,101837.22
2023-04-09T20:31:39.574Z,101840.97
2023-04-09T20:34:15.834Z,101840.53
2023-04-09T20:36:53.903Z,101843.50
2023-04-09T20:39:40.314Z,101839.88
2023-04-09T20:42:08.339Z,101852.03
2023-04-09T20:44:45.049Z,101855.06
2023-04-09T20:47:12.329Z,101853.88
2023-04-09T20:49:40.407Z,101854.56
2023-04-09T20:52:19.372Z,101855.06
2023-04-09T20:54:56.517Z,101851.97
2023-04-09T20:57:35.279Z,101863.78
2023-04-09T21:00:11.570Z,101867.91
2023-04-09T21:02:44.611Z,101868.25
2023-04-09T21:05:22.419Z,101870.75
2023-04-09T21:07:51.257Z,101866.66
2023-04-09T21:10:21.335Z,101866.91
2023-04-09T21:13:01.465Z,101867.31
2023-04-09T21:15:49.841Z,101870.59
2023-04-09T21:18:24.129Z,101867.09
2023-04-09T21:21:00.054Z,101877.25
2023-04-09T21:23:45.404Z,101877.72
2023-04-09T21:26:12.920Z,101875.91
2023-04-09T21:28:42.938Z,101873.31
2023-04-09T21:31:14.175Z,101864.75
2023-04-09T21:33:41.299Z,101876.25
2023-04-09T21:36:14.352Z,101873.00
2023-04-09T21:38:41.271Z,101880.66
2023-04-09T21:41:11.338Z,101881.88
2023-04-09T21:43:46.408Z,101887.22
2023-04-09T21:46:16.506Z,101898.88
2023-04-09T21:48:53.721Z,101900.03
2023-04-09T21:51:20.880Z,101900.16
2023-04-09T21:54:02.467Z,101899.31
2023-04-09T21:56:31.670Z,101895.66
2023-04-09T21:59:09.967Z,101896.16
2023-04-09T22:01:36.977Z,101885.09
2023-04-09T22:04:07.811Z,101893.66
2023-04-09T22:06:38.497Z,101895.25
2023-04-09T22:09:10.404Z,101900.13
2023-04-09T22:11:46.750Z,101899.47
2023-04-09T22:14:20.105Z,101900.22
2023-04-09T22:16:58.472Z,101894.28
2023-04-09T22:19:40.434Z,101899.38
2023-04-09T22:22:22.392Z,101897.78
2023-04-09T22:24:53.464Z,101907.44
2023-04-09T22:27:42.866Z,101908.81
2023-04-09T22:30:09.921Z,101910.91
2023-04-09T22:32:38.779Z,101910.06
2023-04-09T22:35:10.502Z,101902.34
2023-04-09T22:37:40.053Z,101900.94
2023-04-09T22:40:14.281Z,101907.31
2023-04-09T22:42:46.871Z,101903.06
2023-04-09T22:45:18.792Z,101905.13
2023-04-09T22:47:55.522Z,101905.09
2023-04-09T22:50:33.793Z,101898.13
2023-04-09T22:53:03.796Z,101901.38
2023-04-09T22:55:36.762Z,101900.38
2023-04-09T22:58:12.499Z,101906.00
2023-04-09T23:00:45.137Z,101897.50
2023-04-09T23:03:12.249Z,101901.06
2023-04-09T23:05:45.748Z,101906.63
2023-04-09T23:11:17.930Z,101908.88
2023-04-09T23:13:54.301Z,101902.66
2023-04-09T23:16:21.863Z,101902.56
2023-04-09T23:18:50.238Z,101906.13
2023-04-09T23:21:21.647Z,101907.03
2023-04-09T23:23:59.039Z,101914.41
2023-04-09T23:26:39.869Z,101904.28
2023-04-09T23:29:08.755Z,101909.59
2023-04-09T23:31:42.889Z,101909.47
2023-04-09T23:34:13.320Z,101909.78
2023-04-09T23:36:43.456Z,101909.75
2023-04-09T23:39:12.227Z,101907.56
2023-04-09T23:42:19.245Z,101908.59
2023-04-09T23:45:00.760Z,101894.13
2023-04-09T23:47:58.320Z,101895.25
2023-04-09T23:50:49.924Z,101895.47
2023-04-09T23:53:17.199Z,101894.69
2023-04-09T23:56:18.917Z,101898.16
2023-04-09T23:58:51.631Z,101902.72
